createdAt,value
2017-10-17T00:01:48.548Z,23.85
2017-10-17T00:04:16.028Z,21.75
2017-10-17T00:06:44.295Z,21.30
2017-10-17T00:09:12.535Z,21.42
2017-10-17T00:11:39.996Z,21.33
2017-10-17T00:14:07.483Z,22.80
2017-10-17T00:16:35.760Z,21.70
2017-10-17T00:19:04.004Z,24.30
2017-10-17T00:21:31.493Z,21.23
2017-10-17T00:23:59.721Z,21.87
2017-10-17T00:26:27.242Z,22.23
2017-10-17T00:28:54.723Z,22.90
2017-10-17T00:31:22.200Z,23.05
2017-10-17T00:33:49.671Z,21.58
2017-10-17T00:36:17.946Z,22.80
2017-10-17T00:38:46.140Z,21.90
2017-10-17T00:41:13.621Z,20.45
2017-10-17T00:43:41.107Z,21.27
2017-10-17T00:46:17.980Z,19.20
2017-10-17T00:48:45.442Z,18.27
2017-10-17T00:51:13.860Z,19.17
2017-10-17T00:53:41.425Z,17.80
2017-10-17T00:56:08.902Z,20.23
2017-10-17T00:58:37.154Z,18.60
2017-10-17T01:01:04.656Z,18.52
2017-10-17T01:03:32.156Z,18.55
2017-10-17T01:05:59.623Z,19.25
2017-10-17T01:08:27.097Z,20.08
2017-10-17T01:10:54.575Z,19.02
2017-10-17T01:13:22.049Z,17.87
2017-10-17T01:15:49.536Z,18.65
2017-10-17T01:18:17.021Z,18.98
2017-10-17T01:20:47.916Z,18.40
2017-10-17T01:23:17.097Z,17.30
2017-10-17T01:25:44.588Z,18.08
2017-10-17T01:28:13.774Z,16.90
2017-10-17T01:30:41.265Z,16.77
2017-10-17T01:33:09.502Z,16.37
2017-10-17T01:35:36.981Z,17.30
2017-10-17T01:38:07.362Z,17.25
2017-10-17T01:40:34.811Z,18.45
2017-10-17T01:43:02.275Z,17.52
2017-10-17T01:45:34.286Z,16.17
2017-10-17T01:48:02.711Z,18.23
2017-10-17T01:50:30.233Z,18.12
2017-10-17T01:52:59.085Z,17.33
2017-10-17T01:55:26.582Z,18.12
2017-10-17T02:00:46.565Z,17.67
2017-10-17T02:03:14.078Z,18.00
2017-10-17T02:05:41.542Z,16.58
2017-10-17T02:08:09.097Z,17.67
2017-10-17T02:10:36.586Z,17.90
2017-10-17T02:13:04.058Z,17.83
2017-10-17T02:15:31.543Z,16.95
2017-10-17T02:21:06.192Z,17.00
2017-10-17T02:23:33.656Z,18.52
2017-10-17T02:26:03.915Z,17.83
2017-10-17T02:28:34.896Z,17.77
2017-10-17T02:31:03.142Z,17.65
2017-10-17T02:36:21.030Z,18.30
2017-10-17T02:38:49.280Z,18.48
2017-10-17T02:41:16.773Z,17.27
2017-10-17T02:43:50.063Z,16.27
2017-10-17T02:46:17.552Z,17.25
2017-10-17T02:48:59.884Z,19.25
2017-10-17T02:51:27.373Z,19.02
2017-10-17T02:53:55.621Z,19.35
2017-10-17T02:56:23.146Z,19.50
2017-10-17T02:58:50.616Z,17.80
2017-10-17T03:04:11.735Z,17.37
2017-10-17T03:06:39.254Z,17.35
2017-10-17T03:09:07.524Z,18.17
2017-10-17T03:11:35.112Z,17.90
2017-10-17T03:14:05.349Z,18.58
2017-10-17T03:16:32.839Z,17.65
2017-10-17T03:19:00.307Z,16.83
2017-10-17T03:21:29.179Z,17.45
2017-10-17T03:23:58.441Z,18.52
2017-10-17T03:26:25.924Z,17.65
2017-10-17T03:28:53.440Z,16.30
2017-10-17T03:31:22.564Z,18.25
2017-10-17T03:33:51.714Z,18.80
2017-10-17T03:36:36.074Z,17.20
2017-10-17T03:39:03.606Z,17.20
2017-10-17T03:41:33.936Z,18.15
2017-10-17T03:47:32.386Z,18.95
2017-10-17T03:50:01.738Z,18.50
2017-10-17T03:52:33.948Z,18.55
2017-10-17T03:55:01.508Z,18.27
2017-10-17T03:57:29.020Z,20.83
2017-10-17T03:59:58.341Z,17.90
2017-10-17T04:02:25.937Z,18.45
2017-10-17T04:05:06.184Z,19.67
2017-10-17T04:07:55.048Z,18.00
2017-10-17T04:10:29.884Z,18.92
2017-10-17T04:13:01.292Z,18.80
2017-10-17T04:15:29.021Z,18.20
2017-10-17T04:17:59.444Z,19.90
2017-10-17T04:20:40.596Z,19.75
2017-10-17T04:23:10.955Z,19.60
2017-10-17T04:26:14.524Z,18.60
2017-10-17T04:28:44.163Z,20.23
2017-10-17T04:31:28.333Z,20.62
2017-10-17T04:37:26.875Z,19.92
2017-10-17T04:39:54.407Z,20.25
2017-10-17T04:48:45.969Z,20.30
2017-10-17T04:51:14.412Z,21.12
2017-10-17T04:57:01.730Z,21.55
2017-10-17T04:59:41.106Z,22.85
2017-10-17T05:02:47.419Z,20.20
2017-10-17T05:05:35.626Z,23.17
2017-10-17T05:08:08.817Z,21.65
2017-10-17T05:10:55.625Z,22.67
2017-10-17T05:13:28.639Z,22.62
2017-10-17T05:15:56.824Z,23.27
2017-10-17T05:18:39.228Z,21.58
2017-10-17T05:21:31.460Z,23.55
2017-10-17T05:27:15.223Z,20.30
2017-10-17T05:47:27.038Z,26.95
2017-10-17T05:50:07.289Z,26.27
2017-10-17T05:52:56.211Z,26.20
2017-10-17T05:55:23.979Z,25.98
2017-10-17T05:57:53.488Z,24.15
2017-10-17T06:00:21.023Z,24.15
2017-10-17T06:02:48.552Z,23.17
2017-10-17T06:05:16.123Z,21.60
2017-10-17T06:07:43.675Z,21.87
2017-10-17T06:10:11.224Z,23.05
2017-10-17T06:12:38.793Z,23.67
2017-10-17T06:15:06.346Z,23.58
2017-10-17T06:17:34.037Z,23.65
2017-10-17T06:20:01.630Z,22.42
2017-10-17T06:22:29.416Z,22.42
2017-10-17T06:24:56.992Z,23.87
2017-10-17T06:27:24.556Z,22.90
2017-10-17T06:29:52.104Z,22.42
2017-10-17T06:32:20.278Z,21.85
2017-10-17T06:34:47.844Z,21.75
2017-10-17T06:37:15.446Z,22.95
2017-10-17T06:39:44.041Z,22.27
2017-10-17T06:42:11.583Z,17.12
2017-10-17T06:44:39.118Z,18.48
2017-10-17T06:47:06.651Z,19.15
2017-10-17T06:49:35.042Z,16.87
2017-10-17T06:52:10.956Z,16.80
2017-10-17T06:54:39.831Z,15.70
2017-10-17T06:57:30.365Z,18.20
2017-10-17T06:59:58.209Z,17.60
2017-10-17T07:07:04.058Z,17.00
2017-10-17T07:12:24.399Z,19.42
2017-10-17T07:14:54.926Z,17.52
2017-10-17T07:17:28.033Z,19.42
2017-10-17T07:19:58.757Z,18.00
2017-10-17T07:22:36.678Z,19.48
2017-10-17T07:25:04.397Z,20.55
2017-10-17T07:27:33.419Z,19.33
2017-10-17T07:30:01.358Z,20.60
2017-10-17T07:32:29.509Z,20.67
2017-10-17T07:40:24.754Z,17.87
2017-10-17T07:45:39.015Z,18.37
2017-10-17T07:48:23.645Z,16.45
2017-10-17T07:50:52.720Z,15.48
2017-10-17T07:53:22.297Z,15.32
2017-10-17T07:58:32.934Z,14.18
2017-10-17T08:01:05.785Z,15.40
2017-10-17T08:03:33.365Z,14.80
2017-10-17T08:06:03.166Z,15.88
2017-10-17T08:08:36.500Z,15.70
2017-10-17T08:11:15.459Z,14.20
2017-10-17T08:13:48.927Z,14.85
2017-10-17T08:30:52.553Z,15.27
2017-10-17T08:33:21.135Z,13.35
2017-10-17T08:36:14.844Z,14.48
2017-10-17T08:38:46.107Z,14.68
2017-10-17T08:44:16.425Z,16.77
2017-10-17T08:49:33.479Z,16.17
2017-10-17T08:52:36.751Z,15.00
2017-10-17T08:55:04.701Z,16.20
2017-10-17T08:57:45.849Z,14.40
2017-10-17T09:00:29.682Z,16.55
2017-10-17T09:02:58.292Z,14.93
2017-10-17T09:05:26.351Z,14.48
2017-10-17T09:08:02.854Z,14.05
2017-10-17T09:13:29.856Z,14.73
2017-10-17T09:16:04.166Z,14.07
2017-10-17T09:48:38.969Z,12.10
2017-10-17T09:51:17.961Z,12.70
2017-10-17T09:59:20.195Z,11.80
2017-10-17T10:01:59.133Z,11.77
2017-10-17T10:04:28.149Z,10.65
2017-10-17T10:10:12.449Z,11.48
2017-10-17T10:12:45.028Z,10.57
2017-10-17T12:02:56.349Z,9.68
2017-10-17T12:05:25.842Z,9.93
2017-10-17T12:07:57.138Z,9.40
2017-10-17T12:10:34.290Z,10.52
2017-10-17T12:13:03.996Z,6.30
2017-10-17T12:15:46.652Z,8.20
2017-10-17T12:21:34.460Z,9.20
2017-10-17T12:24:15.441Z,7.85
2017-10-17T12:27:09.095Z,8.23
2017-10-17T12:42:11.238Z,8.77
2017-10-17T12:47:21.229Z,10.35
2017-10-17T12:49:49.924Z,8.68
2017-10-17T12:52:17.522Z,8.70
2017-10-17T13:00:27.469Z,7.75
2017-10-17T13:06:04.596Z,7.35
2017-10-17T13:13:05.236Z,8.35
2017-10-17T13:15:34.023Z,9.65
2017-10-17T13:18:02.536Z,7.97
2017-10-17T13:20:30.364Z,8.85
2017-10-17T13:22:57.989Z,7.55
2017-10-17T13:25:26.691Z,7.43
2017-10-17T13:27:54.370Z,8.68
2017-10-17T13:30:21.910Z,7.80
2017-10-17T13:32:49.723Z,7.70
2017-10-17T13:35:19.352Z,7.57
2017-10-17T13:37:52.501Z,7.43
2017-10-17T13:40:27.248Z,8.60
2017-10-17T13:43:05.223Z,7.85
2017-10-17T13:45:36.834Z,7.80
2017-10-17T13:48:13.895Z,8.40
2017-10-17T13:51:00.045Z,8.43
2017-10-17T13:53:32.724Z,7.45
2017-10-17T13:56:01.476Z,9.23
2017-10-17T13:59:09.493Z,8.93
2017-10-17T14:30:58.735Z,7.28
2017-10-17T14:56:58.259Z,7.30
2017-10-17T15:03:07.574Z,7.40
2017-10-17T15:05:37.482Z,7.60
2017-10-17T15:08:15.951Z,7.20
2017-10-17T15:10:45.186Z,8.23
2017-10-17T15:13:19.032Z,7.20
2017-10-17T15:15:50.293Z,7.90
2017-10-17T15:18:23.673Z,6.57
2017-10-17T15:21:02.885Z,7.65
2017-10-17T15:23:41.828Z,7.82
2017-10-17T15:26:16.195Z,9.10
2017-10-17T15:28:56.308Z,8.30
2017-10-17T15:37:36.041Z,8.27
2017-10-17T15:46:28.930Z,8.15
2017-10-17T15:51:44.938Z,7.35
2017-10-17T15:54:12.955Z,7.30
2017-10-17T15:56:50.276Z,8.32
2017-10-17T16:02:29.387Z,6.82
2017-10-17T16:29:23.412Z,6.32
2017-10-17T16:31:51.203Z,8.25
2017-10-17T16:34:30.316Z,7.80
2017-10-17T16:36:58.044Z,8.13
2017-10-17T16:39:25.764Z,7.97
2017-10-17T16:41:53.976Z,7.72
2017-10-17T16:44:22.299Z,8.55
2017-10-17T16:46:57.646Z,8.18
2017-10-17T16:49:26.688Z,8.45
2017-10-17T16:52:11.497Z,7.05
2017-10-17T16:54:44.677Z,8.32
2017-10-17T16:57:16.027Z,7.87
2017-10-17T16:59:50.770Z,7.93
2017-10-17T17:02:19.768Z,8.75
2017-10-17T17:04:47.601Z,7.50
2017-10-17T17:07:18.741Z,8.95
2017-10-17T17:09:49.544Z,7.95
2017-10-17T17:12:36.865Z,7.82
2017-10-17T17:21:28.074Z,7.95
2017-10-17T17:33:01.597Z,8.95
2017-10-17T17:35:33.466Z,8.32
2017-10-17T17:38:03.897Z,6.60
2017-10-17T17:57:05.204Z,7.10
2017-10-17T17:59:32.903Z,7.18
2017-10-17T18:02:00.945Z,7.82
2017-10-17T18:04:29.649Z,10.32
2017-10-17T18:06:58.308Z,8.52
2017-10-17T18:09:34.439Z,7.20
2017-10-17T18:12:08.151Z,9.18
2017-10-17T18:14:36.007Z,8.82
2017-10-17T18:17:03.669Z,8.80
2017-10-17T18:19:33.895Z,7.93
2017-10-17T18:22:02.374Z,7.72
2017-10-17T18:24:30.184Z,7.30
2017-10-17T18:26:57.945Z,9.90
2017-10-17T18:29:25.772Z,7.87
2017-10-17T18:31:57.831Z,8.25
2017-10-17T18:34:25.651Z,8.55
2017-10-17T18:36:53.277Z,10.05
2017-10-17T18:39:21.024Z,9.35
2017-10-17T18:41:51.896Z,8.20
2017-10-17T18:44:19.544Z,8.80
2017-10-17T18:46:47.710Z,8.68
2017-10-17T18:49:16.646Z,9.55
2017-10-17T18:54:25.246Z,8.65
2017-10-17T18:56:52.971Z,9.50
2017-10-17T18:59:20.674Z,9.80
2017-10-17T19:01:48.430Z,8.35
2017-10-17T19:13:13.645Z,8.77
2017-10-17T19:15:41.380Z,8.88
2017-10-17T19:18:09.991Z,9.65
2017-10-17T19:20:38.993Z,8.55
2017-10-17T19:23:06.653Z,8.65
2017-10-17T19:25:34.384Z,8.45
2017-10-17T19:28:02.852Z,8.65
2017-10-17T19:30:30.480Z,9.65
2017-10-17T19:32:57.974Z,9.23
2017-10-17T19:35:25.601Z,9.82
2017-10-17T19:37:55.928Z,8.05
2017-10-17T19:40:23.637Z,9.13
2017-10-17T19:42:57.541Z,9.95
2017-10-17T19:45:25.486Z,8.38
2017-10-17T19:47:53.150Z,9.30
2017-10-17T19:50:20.811Z,9.45
2017-10-17T19:52:48.552Z,8.55
2017-10-17T19:55:16.190Z,9.20
2017-10-17T19:57:44.417Z,10.40
2017-10-17T20:00:13.180Z,9.75
2017-10-17T20:02:40.952Z,11.07
2017-10-17T20:05:08.891Z,11.77
2017-10-17T20:07:38.733Z,11.32
2017-10-17T20:10:07.555Z,11.68
2017-10-17T20:12:36.190Z,9.63
2017-10-17T20:17:59.908Z,10.05
2017-10-17T20:20:27.691Z,10.10
2017-10-17T20:22:55.609Z,10.50
2017-10-17T20:25:27.082Z,10.43
2017-10-17T20:27:55.655Z,11.25
2017-10-17T20:30:23.243Z,11.95
2017-10-17T20:32:50.992Z,11.77
2017-10-17T20:35:34.541Z,11.77
2017-10-17T20:38:07.270Z,12.37
2017-10-17T20:40:34.985Z,11.60
2017-10-17T20:43:02.531Z,11.30
2017-10-17T20:45:30.238Z,11.27
2017-10-17T20:47:57.927Z,11.15
2017-10-17T20:50:25.566Z,11.57
2017-10-17T20:52:53.086Z,11.88
2017-10-17T20:55:20.746Z,11.40
2017-10-17T20:57:48.295Z,11.63
2017-10-17T21:00:16.347Z,12.93
2017-10-17T21:02:45.761Z,12.85
